Terminal Aerodrome Forecast
Issued by NWS

Home | Current Version | Previous Version | Text Only | Print | Product List | Glossary On
Versions: 1 2 3 4 5 6 7 8 9 10 11 12 13 14 15 16
000
FTAK31 PAJN 190540
TAFAYA
TAF
PAYA 190540Z 1906/2006 10008KT P6SM -RA OVC015
      TEMPO 1906/1908 10009G18KT
     FM190900 11010G20KT 4SM -RA BR BKN015 OVC030 WS020/12030KT
     FM191500 10010G20KT 4SM -RA BR BKN015 OVC020 WS020/12040KT
     FM192000 13012G22KT 5SM -RA BR OVC015
     FM200300 12012KT 6SM -RA BR SCT015 OVC025
      AMD LTD TO CLD VIS AND WIND=

USA.gov is the U.S. government's official web portal to all federal, state and local government web resources and services.